Time;durP1;ratioP1;P1;durP2;ratioP2;P2;SDS_P1;SDS_P2;PMS_P1;PMS_P2;Temp;Humidity;BMP_temperature;BMP_pressure;BME280_temperature;BME280_humidity;BME280_pressure;Samples;Min_cycle;Max_cycle;Signal;HPM_P1;HPM_P2
2023/03/13 00:00:54;;;;;;;34.77;6.83;;;9.90;99.90;;;;;;4887144;29;39644;-74
2023/03/13 00:03:20;;;;;;;45.03;7.43;;;9.90;99.90;;;;;;4893504;29;37474;-74
2023/03/13 00:05:46;;;;;;;41.17;7.83;;;9.90;99.90;;;;;;4900776;29;37676;-74
2023/03/13 00:08:13;;;;;;;23.60;6.20;;;9.90;99.90;;;;;;4900768;29;35857;-74
2023/03/13 00:10:40;;;;;;;38.90;6.87;;;10.00;99.90;;;;;;4908519;29;39634;-74
2023/03/13 00:13:07;;;;;;;37.60;7.33;;;10.00;99.90;;;;;;4896166;29;38968;-74
2023/03/13 00:15:33;;;;;;;34.70;7.00;;;10.00;99.90;;;;;;4903398;29;38447;-74
2023/03/13 00:17:59;;;;;;;32.87;6.93;;;10.00;99.90;;;;;;4898280;29;37084;-74
2023/03/13 00:20:25;;;;;;;29.27;6.60;;;10.00;99.90;;;;;;4899460;29;38477;-74
2023/03/13 00:22:52;;;;;;;38.60;8.87;;;10.00;99.90;;;;;;4901965;29;37200;-74
2023/03/13 00:25:18;;;;;;;37.90;7.10;;;10.10;99.90;;;;;;4905631;29;36550;-74
2023/03/13 00:27:44;;;;;;;31.47;7.60;;;10.10;99.90;;;;;;4905399;29;36258;-74
2023/03/13 00:30:11;;;;;;;30.10;8.63;;;10.10;99.90;;;;;;4906989;29;38165;-74
2023/03/13 00:32:45;;;;;;;29.77;8.37;;;10.10;99.90;;;;;;4905619;29;36931;-74
2023/03/13 00:35:15;;;;;;;28.67;8.23;;;10.10;99.90;;;;;;4912464;28;38384;-74
2023/03/13 00:37:41;;;;;;;39.67;9.73;;;10.10;99.90;;;;;;4912199;29;36896;-74
2023/03/13 00:40:10;;;;;;;32.17;10.47;;;10.10;99.90;;;;;;4908460;28;40559;-74
2023/03/13 00:42:36;;;;;;;31.77;8.53;;;10.20;99.90;;;;;;4911408;29;38298;-74
2023/03/13 00:45:03;;;;;;;29.87;10.70;;;10.20;99.90;;;;;;4912859;29;38678;-74
2023/03/13 00:47:29;;;;;;;28.90;10.70;;;10.20;99.90;;;;;;4905805;29;48743;-74
2023/03/13 00:49:55;;;;;;;34.40;10.10;;;10.20;99.90;;;;;;4903273;29;37939;-74
2023/03/13 00:52:22;;;;;;;31.50;9.47;;;10.20;99.90;;;;;;4905098;29;38348;-73
2023/03/13 00:54:48;;;;;;;31.03;10.17;;;10.20;99.90;;;;;;4903950;29;37667;-74
2023/03/13 00:57:14;;;;;;;28.90;10.80;;;10.30;99.90;;;;;;4916343;28;35942;-74
2023/03/13 00:59:40;;;;;;;39.90;13.00;;;10.30;99.90;;;;;;4901901;28;38555;-74
2023/03/13 01:02:06;;;;;;;31.90;11.57;;;10.30;99.90;;;;;;4900342;29;38061;-73
2023/03/13 01:04:32;;;;;;;33.33;11.53;;;10.30;99.90;;;;;;4890610;29;37237;-73
2023/03/13 01:06:58;;;;;;;34.37;11.97;;;10.30;99.90;;;;;;4906176;29;37353;-74
2023/03/13 01:09:24;;;;;;;33.83;12.43;;;10.40;99.90;;;;;;4898866;29;37248;-73
2023/03/13 01:11:51;;;;;;;30.83;12.90;;;10.30;99.90;;;;;;4886833;29;37795;-73
2023/03/13 01:14:19;;;;;;;30.03;12.50;;;10.40;99.90;;;;;;4900024;29;38158;-73
2023/03/13 01:16:45;;;;;;;29.97;12.30;;;10.40;99.90;;;;;;4900931;29;38282;-73
2023/03/13 01:19:14;;;;;;;33.83;13.47;;;10.40;99.90;;;;;;4907713;29;38473;-73
2023/03/13 01:21:42;;;;;;;30.80;14.20;;;10.50;99.90;;;;;;4884057;29;37235;-72
2023/03/13 01:24:08;;;;;;;36.97;15.33;;;10.50;99.90;;;;;;4906543;29;37709;-75
2023/03/13 01:26:35;;;;;;;35.43;15.63;;;10.50;99.90;;;;;;4888097;29;36474;-73
2023/03/13 01:29:01;;;;;;;30.37;14.43;;;10.50;99.90;;;;;;4903273;29;39710;-74
2023/03/13 01:31:30;;;;;;;26.52;14.23;;;10.60;99.90;;;;;;4899737;29;47468;-73
2023/03/13 01:34:01;;;;;;;33.10;14.50;;;10.60;99.90;;;;;;4893583;29;40132;-74
2023/03/13 01:36:28;;;;;;;29.88;14.80;;;10.70;99.90;;;;;;4904983;29;48947;-74
2023/03/13 01:38:56;;;;;;;33.37;14.87;;;10.70;99.90;;;;;;4905310;29;38155;-74
2023/03/13 01:41:24;;;;;;;28.10;14.43;;;10.70;99.90;;;;;;4898637;29;37199;-74
2023/03/13 01:43:50;;;;;;;31.97;15.40;;;10.80;99.90;;;;;;4900964;29;38194;-75
2023/03/13 01:46:18;;;;;;;27.83;14.10;;;10.80;99.90;;;;;;4900213;29;36542;-75
2023/03/13 01:49:06;;;;;;;35.20;14.35;;;10.80;99.90;;;;;;4900477;29;39655;-75
2023/03/13 01:51:38;;;;;;;30.70;14.40;;;10.80;99.90;;;;;;4879349;29;47303;-72
2023/03/13 01:54:27;;;;;;;30.67;16.20;;;10.80;99.90;;;;;;4892097;29;36821;-74
2023/03/13 01:56:56;;;;;;;28.85;16.02;;;10.90;99.90;;;;;;4883179;29;36540;-74
2023/03/13 01:59:46;;;;;;;31.03;14.67;;;10.90;99.90;;;;;;4879198;29;38429;-74
2023/03/13 02:02:14;;;;;;;29.27;14.23;;;10.90;99.90;;;;;;5402156;23;37900;-75
2023/03/13 02:04:46;;;;;;;25.60;13.38;;;11.00;99.90;;;;;;4934623;28;37360;-76
2023/03/13 02:07:19;;;;;;;32.95;13.90;;;11.00;99.90;;;;;;4942766;28;36606;-75
2023/03/13 02:09:50;;;;;;;30.67;13.60;;;11.10;99.90;;;;;;4948351;28;38113;-75
2023/03/13 02:12:23;;;;;;;28.50;12.82;;;11.20;99.90;;;;;;4966838;28;38555;-75
2023/03/13 02:14:50;;;;;;;25.10;13.55;;;11.10;99.90;;;;;;4946236;28;37816;-75
2023/03/13 02:17:17;;;;;;;31.83;14.93;;;11.20;99.90;;;;;;4960294;28;38070;-76
2023/03/13 02:19:51;;;;;;;30.08;12.85;;;11.20;99.90;;;;;;4958415;28;38793;-75
2023/03/13 02:22:39;;;;;;;24.55;12.80;;;11.20;99.90;;;;;;4937858;28;38083;-75
2023/03/13 02:25:31;;;;;;;26.23;12.30;;;11.30;99.90;;;;;;4938117;28;36516;-75
2023/03/13 02:28:00;;;;;;;19.97;11.27;;;11.30;99.90;;;;;;4937105;28;37532;-75
2023/03/13 02:30:27;;;;;;;22.02;11.45;;;11.30;99.90;;;;;;4956911;28;37177;-75
2023/03/13 02:32:54;;;;;;;23.27;9.85;;;11.40;99.90;;;;;;4956293;28;38261;-75
2023/03/13 02:35:22;;;;;;;21.70;11.10;;;11.40;99.90;;;;;;4962742;28;37663;-75
2023/03/13 02:37:55;;;;;;;16.77;9.65;;;11.40;99.90;;;;;;4945026;28;35869;-75
2023/03/13 02:40:27;;;;;;;19.55;9.15;;;11.40;99.90;;;;;;4951757;28;37877;-75
2023/03/13 02:42:57;;;;;;;20.23;8.67;;;11.50;99.90;;;;;;4946722;28;38285;-76
2023/03/13 02:45:23;;;;;;;21.35;9.40;;;11.60;99.90;;;;;;4964465;28;37286;-76
2023/03/13 02:47:49;;;;;;;20.23;8.85;;;11.60;99.90;;;;;;4964955;28;37227;-75
2023/03/13 02:50:16;;;;;;;19.98;8.35;;;11.60;99.90;;;;;;4948531;28;37810;-75
2023/03/13 02:52:50;;;;;;;17.88;9.02;;;11.60;99.90;;;;;;4950263;28;38012;-75
2023/03/13 02:55:26;;;;;;;14.63;8.85;;;11.70;99.90;;;;;;4947431;28;38340;-75
2023/03/13 02:57:52;;;;;;;14.32;7.72;;;11.70;99.90;;;;;;4942101;28;36871;-76
2023/03/13 03:00:19;;;;;;;14.25;8.02;;;11.70;99.90;;;;;;4945104;28;39345;-76
2023/03/13 03:02:45;;;;;;;15.32;8.60;;;11.70;99.90;;;;;;4963280;28;39498;-76
2023/03/13 03:05:12;;;;;;;20.13;8.20;;;11.70;99.90;;;;;;4946846;28;37716;-76
2023/03/13 03:07:38;;;;;;;17.00;7.40;;;11.80;99.90;;;;;;4924704;28;36593;-76
2023/03/13 03:10:05;;;;;;;16.75;7.82;;;11.80;99.90;;;;;;4946968;28;38868;-75
2023/03/13 03:12:31;;;;;;;11.93;6.97;;;11.80;99.90;;;;;;4947836;28;38678;-76
2023/03/13 03:14:57;;;;;;;15.40;6.53;;;11.80;99.90;;;;;;4942536;28;38680;-79
2023/03/13 03:17:23;;;;;;;17.38;6.30;;;11.90;99.90;;;;;;4946489;28;38164;-76
2023/03/13 03:19:49;;;;;;;11.23;6.68;;;11.90;99.90;;;;;;4926716;28;37810;-76
2023/03/13 03:22:15;;;;;;;10.38;6.45;;;11.90;99.90;;;;;;4947301;28;38476;-76
2023/03/13 03:24:41;;;;;;;12.38;5.88;;;11.90;99.90;;;;;;4921023;28;36548;-76
2023/03/13 03:27:07;;;;;;;11.73;5.93;;;12.00;99.90;;;;;;4923048;28;36228;-76
2023/03/13 03:29:33;;;;;;;12.45;6.72;;;12.00;99.90;;;;;;4922309;28;37848;-76
2023/03/13 03:31:59;;;;;;;14.52;7.20;;;12.00;99.90;;;;;;4924582;28;37427;-76
2023/03/13 03:34:28;;;;;;;12.05;6.00;;;12.00;99.90;;;;;;4924465;28;36882;-76
2023/03/13 03:36:54;;;;;;;11.27;6.30;;;12.00;99.90;;;;;;4929262;28;40249;-76
2023/03/13 03:39:20;;;;;;;9.80;6.30;;;12.10;99.90;;;;;;4941232;28;39048;-76
2023/03/13 03:41:46;;;;;;;13.25;6.25;;;12.10;99.90;;;;;;4941713;28;38111;-76
2023/03/13 03:44:12;;;;;;;15.23;7.05;;;12.10;99.90;;;;;;4943573;28;37740;-76
2023/03/13 03:46:38;;;;;;;11.38;6.50;;;12.10;99.90;;;;;;4927644;28;36109;-75
2023/03/13 03:49:04;;;;;;;14.48;6.38;;;12.10;99.90;;;;;;4943901;28;38146;-76
2023/03/13 03:51:31;;;;;;;15.65;6.90;;;12.10;99.90;;;;;;4927676;28;37082;-76
2023/03/13 03:54:10;;;;;;;17.90;7.43;;;12.20;99.90;;;;;;4930910;28;37341;-76
2023/03/13 03:56:36;;;;;;;17.20;7.13;;;12.20;99.90;;;;;;4945181;28;48542;-76
2023/03/13 03:59:02;;;;;;;16.85;6.63;;;12.10;99.90;;;;;;4940432;28;38704;-76
2023/03/13 04:01:28;;;;;;;11.93;7.10;;;12.10;99.90;;;;;;4945680;28;38072;-76
2023/03/13 04:03:54;;;;;;;13.60;7.80;;;12.10;99.90;;;;;;4931548;28;36358;-76
2023/03/13 04:06:20;;;;;;;13.52;6.80;;;12.10;99.90;;;;;;4947170;28;37908;-76
2023/03/13 04:08:46;;;;;;;12.18;7.32;;;12.10;99.90;;;;;;4947023;28;37720;-76
2023/03/13 04:11:12;;;;;;;14.80;6.88;;;12.10;99.90;;;;;;4949183;28;38113;-75
2023/03/13 04:13:38;;;;;;;14.95;7.80;;;12.10;99.90;;;;;;4949998;28;38103;-76
2023/03/13 04:16:08;;;;;;;13.43;7.78;;;12.20;99.90;;;;;;4947284;28;35618;-76
2023/03/13 04:18:35;;;;;;;14.23;7.40;;;12.20;99.90;;;;;;4947500;28;38940;-76
2023/03/13 04:21:03;;;;;;;15.35;7.82;;;12.20;99.90;;;;;;4948205;28;37323;-76
2023/03/13 04:23:29;;;;;;;14.60;7.10;;;12.20;99.90;;;;;;4948058;28;48172;-76
2023/03/13 04:25:55;;;;;;;15.85;8.38;;;12.30;99.90;;;;;;4947461;28;36938;-76
2023/03/13 04:28:21;;;;;;;16.10;7.90;;;12.30;99.90;;;;;;4946698;28;37931;-75
2023/03/13 04:30:47;;;;;;;13.82;7.82;;;12.40;99.90;;;;;;4947614;28;38689;-76
2023/03/13 04:33:13;;;;;;;10.85;7.65;;;12.30;99.90;;;;;;4945265;28;38844;-75
2023/03/13 04:35:39;;;;;;;17.95;7.93;;;12.30;99.90;;;;;;4941652;28;36927;-75
2023/03/13 04:38:05;;;;;;;18.13;7.65;;;12.30;99.90;;;;;;4941799;28;37829;-76
2023/03/13 04:40:31;;;;;;;18.70;6.80;;;12.40;99.90;;;;;;4948180;28;37067;-76
2023/03/13 04:42:57;;;;;;;13.30;7.00;;;12.40;99.90;;;;;;4948225;28;38511;-76
2023/03/13 04:45:23;;;;;;;14.57;5.90;;;12.40;99.90;;;;;;4943846;28;36961;-76
2023/03/13 04:47:50;;;;;;;11.63;6.10;;;12.40;99.90;;;;;;4943733;28;39026;-76
2023/03/13 04:50:16;;;;;;;12.65;5.53;;;12.50;99.90;;;;;;4941526;28;38108;-75
2023/03/13 04:52:42;;;;;;;12.90;5.65;;;12.50;99.90;;;;;;4941765;28;36285;-76
2023/03/13 04:55:08;;;;;;;14.57;5.78;;;12.50;99.90;;;;;;4941452;28;37029;-77
2023/03/13 04:57:34;;;;;;;11.25;5.90;;;12.60;99.90;;;;;;4943247;28;38903;-77
2023/03/13 05:00:00;;;;;;;14.32;5.97;;;12.60;99.90;;;;;;4942505;28;37983;-77
2023/03/13 05:02:26;;;;;;;13.32;5.65;;;12.60;99.90;;;;;;4942811;28;37400;-77
2023/03/13 05:04:52;;;;;;;11.70;4.63;;;12.60;99.90;;;;;;4945481;28;36377;-77
2023/03/13 05:07:18;;;;;;;19.90;5.18;;;12.60;99.90;;;;;;4947167;28;37457;-77
2023/03/13 05:09:44;;;;;;;14.13;4.63;;;12.60;99.90;;;;;;4959632;28;37258;-77
2023/03/13 05:12:11;;;;;;;18.52;5.07;;;12.60;99.90;;;;;;4948700;28;36261;-77
2023/03/13 05:14:37;;;;;;;14.10;4.50;;;12.60;99.90;;;;;;4946300;28;37008;-76
2023/03/13 05:17:03;;;;;;;16.85;4.78;;;12.70;99.90;;;;;;4951988;28;37493;-76
2023/03/13 05:19:29;;;;;;;14.02;4.55;;;12.60;99.90;;;;;;4952390;28;37116;-76
2023/03/13 05:21:55;;;;;;;12.93;4.47;;;12.70;99.90;;;;;;4969280;28;38417;-77
2023/03/13 05:24:21;;;;;;;14.15;4.07;;;12.80;99.90;;;;;;4947648;28;38369;-76
2023/03/13 05:26:47;;;;;;;12.75;4.15;;;12.80;99.90;;;;;;4950850;28;37807;-77
2023/03/13 05:29:13;;;;;;;12.82;4.60;;;12.80;99.90;;;;;;4963873;28;38556;-77
2023/03/13 05:31:39;;;;;;;13.02;3.97;;;12.80;99.90;;;;;;4942432;28;36878;-76
2023/03/13 05:34:05;;;;;;;13.52;3.72;;;12.80;99.90;;;;;;4945025;28;36530;-76
2023/03/13 05:36:31;;;;;;;12.20;4.40;;;12.80;99.90;;;;;;4958466;28;37481;-76
2023/03/13 05:38:57;;;;;;;17.50;4.38;;;12.80;99.90;;;;;;4943951;28;37770;-76
2023/03/13 05:41:23;;;;;;;16.50;4.90;;;12.80;99.90;;;;;;4959599;28;36084;-76
2023/03/13 05:43:49;;;;;;;14.50;3.97;;;12.80;99.90;;;;;;4960819;28;36976;-76
2023/03/13 05:46:15;;;;;;;14.77;3.60;;;12.90;99.90;;;;;;4941961;28;38178;-75
2023/03/13 05:48:44;;;;;;;14.82;3.72;;;12.90;99.90;;;;;;4946396;28;38517;-76
2023/03/13 05:51:10;;;;;;;13.20;4.38;;;12.90;99.90;;;;;;4956771;28;39250;-75
2023/03/13 05:53:36;;;;;;;13.88;4.35;;;12.90;99.90;;;;;;4964797;28;36565;-77
2023/03/13 05:56:02;;;;;;;12.80;3.50;;;13.00;99.90;;;;;;4961035;28;38489;-76
2023/03/13 05:58:28;;;;;;;12.20;3.70;;;13.00;99.90;;;;;;4964959;28;35807;-77
2023/03/13 06:00:54;;;;;;;13.05;4.07;;;13.00;99.90;;;;;;4951278;28;36855;-76
2023/03/13 06:03:23;;;;;;;12.27;3.85;;;13.00;99.90;;;;;;4954631;28;37325;-77
2023/03/13 06:05:55;;;;;;;10.18;3.78;;;13.00;99.90;;;;;;4939797;28;38621;-77
2023/03/13 06:08:21;;;;;;;11.43;4.00;;;13.00;99.90;;;;;;4947542;28;37810;-77
2023/03/13 06:10:47;;;;;;;12.90;3.88;;;13.00;99.90;;;;;;4948663;28;38024;-76
2023/03/13 06:13:13;;;;;;;12.00;3.60;;;13.00;99.90;;;;;;4948841;28;35844;-75
2023/03/13 06:15:40;;;;;;;9.75;4.47;;;12.90;99.90;;;;;;4952662;28;37956;-75
2023/03/13 06:18:06;;;;;;;11.13;4.03;;;12.80;99.90;;;;;;4965720;28;39064;-76
2023/03/13 06:20:32;;;;;;;14.05;4.28;;;12.80;99.90;;;;;;4950585;28;36985;-76
2023/03/13 06:22:58;;;;;;;18.65;4.68;;;12.80;99.90;;;;;;4942962;28;36030;-76
2023/03/13 06:25:24;;;;;;;15.43;5.00;;;12.60;99.90;;;;;;4948880;28;37747;-76
2023/03/13 06:27:50;;;;;;;14.75;4.80;;;12.60;99.90;;;;;;4946006;28;37074;-76
2023/03/13 06:30:17;;;;;;;10.48;4.55;;;12.50;99.90;;;;;;4965128;28;36867;-75
2023/03/13 06:32:43;;;;;;;12.30;5.50;;;12.40;99.90;;;;;;4963058;28;38336;-76
2023/03/13 06:35:09;;;;;;;14.23;5.53;;;12.40;99.90;;;;;;4943568;28;38712;-79
2023/03/13 06:37:35;;;;;;;18.98;6.32;;;12.30;99.90;;;;;;4942661;28;37289;-78
2023/03/13 06:40:01;;;;;;;20.08;6.10;;;12.20;99.90;;;;;;4947284;28;38512;-76
2023/03/13 06:42:27;;;;;;;22.30;6.60;;;12.20;99.90;;;;;;4950694;28;36265;-76
2023/03/13 06:44:53;;;;;;;17.38;5.90;;;12.10;99.90;;;;;;4967091;28;38505;-76
2023/03/13 06:47:19;;;;;;;15.65;6.80;;;12.10;99.90;;;;;;4965553;28;38272;-76
2023/03/13 06:49:45;;;;;;;17.63;5.35;;;12.10;99.90;;;;;;4950889;28;36423;-76
2023/03/13 06:52:11;;;;;;;16.17;5.82;;;12.10;99.90;;;;;;4966688;28;37744;-76
2023/03/13 06:54:37;;;;;;;18.30;5.88;;;12.10;99.90;;;;;;4945030;28;37505;-76
2023/03/13 06:57:03;;;;;;;19.15;6.10;;;12.00;99.90;;;;;;4961886;28;36950;-75
2023/03/13 06:59:30;;;;;;;18.75;6.25;;;12.10;99.90;;;;;;4947189;28;37273;-76
2023/03/13 07:01:56;;;;;;;21.63;6.68;;;12.10;99.90;;;;;;4946297;28;36427;-76
2023/03/13 07:04:22;;;;;;;16.75;6.38;;;12.00;99.90;;;;;;4952879;28;38936;-75
2023/03/13 07:06:50;;;;;;;14.35;5.85;;;12.00;99.90;;;;;;4928178;28;37286;-77
2023/03/13 07:09:18;;;;;;;17.20;6.93;;;12.00;99.90;;;;;;4940204;28;38358;-76
2023/03/13 07:11:45;;;;;;;24.80;7.35;;;12.10;99.90;;;;;;4928970;28;37897;-76
2023/03/13 07:14:11;;;;;;;19.35;6.65;;;12.10;99.90;;;;;;4947482;28;38461;-76
2023/03/13 07:16:37;;;;;;;19.08;5.75;;;12.10;99.90;;;;;;4948201;28;38060;-76
2023/03/13 07:19:03;;;;;;;20.33;7.55;;;12.10;99.90;;;;;;4932096;28;38072;-76
2023/03/13 07:21:29;;;;;;;29.83;7.07;;;12.10;99.90;;;;;;4946541;28;36999;-75
2023/03/13 07:23:55;;;;;;;15.63;6.55;;;12.10;99.90;;;;;;4943108;28;37973;-76
2023/03/13 07:26:21;;;;;;;19.17;7.32;;;12.10;99.90;;;;;;4949864;28;38608;-76
2023/03/13 07:28:47;;;;;;;19.48;6.38;;;12.10;99.90;;;;;;4925540;28;37874;-77
2023/03/13 07:31:16;;;;;;;18.23;6.18;;;12.10;99.90;;;;;;4941880;28;37106;-76
2023/03/13 07:33:43;;;;;;;18.35;5.68;;;12.20;99.90;;;;;;4949509;28;39029;-76
2023/03/13 07:36:11;;;;;;;18.20;6.18;;;12.20;99.90;;;;;;4941219;28;39012;-76
2023/03/13 07:38:37;;;;;;;17.30;6.13;;;12.20;99.90;;;;;;4942993;28;37909;-76
2023/03/13 07:41:04;;;;;;;17.30;5.82;;;12.30;99.90;;;;;;4948793;28;37824;-76
2023/03/13 07:43:33;;;;;;;20.08;5.80;;;12.30;99.90;;;;;;4952206;28;40065;-76
2023/03/13 07:46:05;;;;;;;15.27;5.15;;;12.40;99.90;;;;;;4935910;28;37241;-77
2023/03/13 07:48:37;;;;;;;15.63;5.63;;;12.30;99.90;;;;;;4947190;28;48328;-76
2023/03/13 07:51:09;;;;;;;14.02;5.03;;;12.30;99.90;;;;;;4944712;28;36977;-76
2023/03/13 07:53:35;;;;;;;;;;;12.30;99.90;;;;;;4951882;28;39804;-76
2023/03/13 07:56:04;;;;;;;24.10;6.75;;;12.30;99.90;;;;;;4933011;28;37349;-76
2023/03/13 07:58:33;;;;;;;15.15;5.20;;;12.30;99.90;;;;;;4948707;28;38716;-76
2023/03/13 08:01:00;;;;;;;15.15;4.85;;;12.30;99.90;;;;;;4932485;28;36135;-76
2023/03/13 08:03:27;;;;;;;17.15;5.20;;;12.40;99.90;;;;;;4932629;28;39690;-76
2023/03/13 08:06:00;;;;;;;15.38;5.28;;;12.40;99.90;;;;;;4951763;28;39527;-77
2023/03/13 08:08:27;;;;;;;14.13;4.78;;;12.50;99.90;;;;;;4926782;28;47199;-75
2023/03/13 08:11:02;;;;;;;13.13;4.63;;;12.50;99.90;;;;;;4946267;28;36822;-75
2023/03/13 08:13:28;;;;;;;10.50;3.85;;;12.50;99.90;;;;;;4925120;28;46998;-76
2023/03/13 08:16:08;;;;;;;13.15;3.75;;;12.50;99.90;;;;;;4949185;28;38148;-76
2023/03/13 08:18:36;;;;;;;14.10;3.95;;;12.50;99.90;;;;;;4947639;28;48871;-75
2023/03/13 08:21:04;;;;;;;12.23;3.58;;;12.50;99.90;;;;;;4943497;28;37207;-75
2023/03/13 08:23:31;;;;;;;8.07;3.08;;;12.50;99.90;;;;;;4931891;28;37891;-76
2023/03/13 08:26:18;;;;;;;11.98;3.22;;;12.50;99.90;;;;;;4949375;28;38048;-77
2023/03/13 08:28:46;;;;;;;11.77;3.83;;;12.50;99.90;;;;;;4947734;28;48570;-76
2023/03/13 08:31:18;;;;;;;11.75;3.30;;;12.60;99.90;;;;;;4948114;28;36556;-76
2023/03/13 08:33:45;;;;;;;12.98;3.33;;;12.60;99.90;;;;;;4944364;28;38464;-75
2023/03/13 08:36:16;;;;;;;12.30;3.58;;;12.70;99.90;;;;;;4929114;28;37069;-75
2023/03/13 08:38:43;;;;;;;14.13;3.10;;;12.70;99.90;;;;;;4926782;28;36601;-78
2023/03/13 08:41:15;;;;;;;12.73;3.83;;;12.70;99.90;;;;;;4950986;28;37330;-77
2023/03/13 08:43:41;;;;;;;13.88;3.25;;;12.70;99.90;;;;;;4946815;28;38624;-77
2023/03/13 08:46:07;;;;;;;10.15;2.80;;;12.90;99.90;;;;;;4929488;28;38821;-77
2023/03/13 08:48:33;;;;;;;8.23;2.50;;;12.90;99.90;;;;;;4937260;28;36578;-79
2023/03/13 08:51:04;;;;;;;12.93;2.65;;;13.10;99.90;;;;;;4951708;28;38076;-80
2023/03/13 08:53:35;;;;;;;11.02;2.70;;;13.30;99.90;;;;;;4931232;28;47024;-76
2023/03/13 08:56:03;;;;;;;8.50;2.20;;;13.50;99.90;;;;;;4950799;28;39360;-75
2023/03/13 08:58:30;;;;;;;8.13;2.55;;;13.60;99.90;;;;;;4928414;28;36639;-75
2023/03/13 09:01:04;;;;;;;12.73;2.88;;;13.70;99.90;;;;;;4926439;28;36155;-75
2023/03/13 09:03:32;;;;;;;8.93;2.33;;;13.90;99.90;;;;;;4946026;28;46898;-79
2023/03/13 09:05:59;;;;;;;6.07;1.92;;;14.20;99.90;;;;;;4926413;28;39017;-76
2023/03/13 09:08:26;;;;;;;11.02;1.95;;;14.40;99.90;;;;;;4946583;28;37577;-76
2023/03/13 09:10:56;;;;;;;10.27;1.92;;;14.40;99.90;;;;;;4931382;28;38055;-77
2023/03/13 09:13:23;;;;;;;8.15;1.95;;;14.50;99.90;;;;;;4930748;28;37538;-76
2023/03/13 09:16:01;;;;;;;10.27;2.13;;;14.60;99.90;;;;;;4929343;28;37503;-77
2023/03/13 09:18:28;;;;;;;8.10;1.75;;;14.60;99.90;;;;;;4930486;28;47021;-75
2023/03/13 09:20:54;;;;;;;9.95;1.73;;;14.70;99.90;;;;;;4947327;28;36887;-75
2023/03/13 09:23:21;;;;;;;9.35;1.70;;;14.60;99.90;;;;;;4928744;28;41160;-76
2023/03/13 09:25:50;;;;;;;7.57;1.77;;;14.70;99.90;;;;;;4948844;28;39542;-74
2023/03/13 09:28:17;;;;;;;10.52;2.53;;;14.50;99.90;;;;;;4943881;28;36921;-77
2023/03/13 09:30:43;;;;;;;8.13;2.00;;;14.40;99.90;;;;;;4933070;28;37222;-77
2023/03/13 09:33:09;;;;;;;9.13;1.80;;;14.50;99.90;;;;;;4933936;28;37999;-77
2023/03/13 09:35:38;;;;;;;5.70;1.25;;;14.60;99.90;;;;;;4951836;28;39595;-75
2023/03/13 09:38:05;;;;;;;8.65;2.08;;;14.60;99.90;;;;;;4930399;28;39565;-75
2023/03/13 09:40:47;;;;;;;6.65;1.60;;;14.60;99.90;;;;;;4951577;28;37558;-77
2023/03/13 09:43:40;;;;;;;6.35;1.40;;;14.70;99.90;;;;;;4942756;28;39477;-76
2023/03/13 09:46:10;;;;;;;;;;;14.70;99.90;;;;;;4911878;28;37263;-75
2023/03/13 09:48:44;;;;;;;9.02;1.35;;;14.80;99.90;;;;;;4945091;28;39103;-75
2023/03/13 09:51:41;;;;;;;5.55;1.52;;;14.90;99.90;;;;;;4927674;28;36824;-75
2023/03/13 09:54:27;;;;;;;4.05;1.40;;;14.80;99.90;;;;;;4929741;28;38920;-75
2023/03/13 09:56:57;;;;;;;4.97;1.30;;;14.80;99.90;;;;;;4940331;28;39142;-75
2023/03/13 09:59:28;;;;;;;9.05;1.90;;;14.80;99.90;;;;;;4924992;28;37131;-75
2023/03/13 10:01:57;;;;;;;10.05;1.67;;;15.00;99.90;;;;;;4933577;28;37487;-76
2023/03/13 10:04:47;;;;;;;6.80;1.70;;;15.00;99.90;;;;;;4940845;28;38777;-74
2023/03/13 10:07:14;;;;;;;5.43;1.40;;;15.00;99.90;;;;;;4948311;28;37398;-76
2023/03/13 10:09:40;;;;;;;7.97;1.75;;;15.20;99.90;;;;;;4949500;28;36978;-75
2023/03/13 10:12:22;;;;;;;6.28;1.33;;;15.40;99.90;;;;;;4966987;28;38342;-76
2023/03/13 10:15:36;;;;;;;9.07;1.40;;;15.60;99.90;;;;;;4956169;28;37760;-76
2023/03/13 10:18:11;;;;;;;;;;;15.50;99.90;;;;;;4911851;28;47339;-75
2023/03/13 10:20:41;;;;;;;15.20;2.10;;;15.50;99.90;;;;;;4967841;28;38283;-75
2023/03/13 10:23:19;;;;;;;7.20;2.05;;;15.50;99.90;;;;;;4945506;28;37416;-75
2023/03/13 10:25:46;;;;;;;10.52;1.83;;;15.70;99.90;;;;;;4949290;28;37623;-76
2023/03/13 10:28:15;;;;;;;8.40;1.52;;;15.80;99.90;;;;;;4966683;28;38298;-76
2023/03/13 10:30:46;;;;;;;8.52;1.85;;;15.90;99.90;;;;;;4940417;28;36950;-77
2023/03/13 10:33:19;;;;;;;5.28;1.67;;;16.10;99.90;;;;;;4944705;28;36014;-76
2023/03/13 10:35:45;;;;;;;4.40;1.70;;;16.10;99.90;;;;;;4956642;28;39584;-76
2023/03/13 10:38:21;;;;;;;4.88;1.48;;;16.20;99.90;;;;;;4948974;28;37729;-78
2023/03/13 10:41:07;;;;;;;7.15;1.90;;;16.40;99.90;;;;;;4946401;28;38335;-77
2023/03/13 10:43:33;;;;;;;9.90;1.90;;;16.60;99.90;;;;;;4944295;28;47054;-77
2023/03/13 10:46:00;;;;;;;9.85;2.58;;;16.80;99.90;;;;;;4955883;28;38885;-76
2023/03/13 10:48:34;;;;;;;8.05;1.95;;;17.00;99.90;;;;;;4948381;28;37207;-76
2023/03/13 10:51:00;;;;;;;6.88;2.20;;;17.10;99.90;;;;;;4963806;28;37232;-77
2023/03/13 10:53:29;;;;;;;6.40;1.80;;;17.20;99.90;;;;;;4941603;28;36139;-79
2023/03/13 10:56:10;;;;;;;5.88;1.42;;;17.20;99.90;;;;;;4964766;28;38835;-77
2023/03/13 10:58:46;;;;;;;7.45;1.83;;;17.40;99.90;;;;;;4944615;28;47149;-78
2023/03/13 11:01:40;;;;;;;9.95;2.45;;;17.50;99.90;;;;;;4946471;28;36752;-77
2023/03/13 11:04:25;;;;;;;6.45;2.25;;;17.20;99.90;;;;;;4953872;28;36741;-78
2023/03/13 11:06:56;;;;;;;9.27;2.15;;;17.10;99.90;;;;;;4928614;28;37442;-78
2023/03/13 11:09:24;;;;;;;17.92;3.15;;;16.70;99.90;;;;;;4927391;28;37042;-74
2023/03/13 11:11:59;;;;;;;9.10;1.75;;;16.50;99.90;;;;;;4927322;28;38686;-76
2023/03/13 11:14:25;;;;;;;11.70;2.80;;;16.40;99.90;;;;;;4924911;28;36267;-77
2023/03/13 11:17:01;;;;;;;14.07;2.92;;;16.30;99.90;;;;;;4930158;28;38048;-79
2023/03/13 11:19:57;;;;;;;10.48;2.10;;;16.20;99.90;;;;;;4942215;28;48345;-76
2023/03/13 11:22:47;;;;;;;12.77;2.42;;;16.20;99.90;;;;;;4917018;28;36999;-75
2023/03/13 11:25:42;;;;;;;13.20;2.65;;;16.20;99.90;;;;;;4944739;28;37297;-75
2023/03/13 11:28:40;;;;;;;12.10;2.38;;;16.30;99.90;;;;;;4926632;28;38285;-77
2023/03/13 11:31:19;;;;;;;16.77;2.95;;;16.50;99.90;;;;;;4905668;28;38189;-76
2023/03/13 11:34:16;;;;;;;13.52;2.67;;;16.60;99.90;;;;;;4926382;28;37154;-78
2023/03/13 11:36:54;;;;;;;14.77;2.63;;;16.60;99.90;;;;;;4930744;28;47242;-76
2023/03/13 11:39:20;;;;;;;10.80;2.97;;;16.90;99.90;;;;;;4924013;28;37572;-77
2023/03/13 11:41:59;;;;;;;11.93;2.65;;;17.10;99.90;;;;;;4931068;28;38747;-77
2023/03/13 11:44:38;;;;;;;13.82;3.33;;;17.20;99.90;;;;;;4944455;28;38198;-78
2023/03/13 11:47:27;;;;;;;10.80;2.53;;;17.30;99.90;;;;;;4937773;28;37107;-77
2023/03/13 11:50:03;;;;;;;10.50;2.75;;;17.30;99.90;;;;;;4915564;28;40340;-78
2023/03/13 11:53:01;;;;;;;9.98;2.53;;;17.00;99.90;;;;;;4925889;28;37735;-76
2023/03/13 11:55:39;;;;;;;15.95;3.42;;;17.00;99.90;;;;;;4907155;28;48521;-77
2023/03/13 11:58:15;;;;;;;10.35;2.63;;;17.00;99.90;;;;;;4945123;28;37171;-78
2023/03/13 12:00:49;;;;;;;13.38;2.72;;;17.10;99.90;;;;;;4926982;28;37908;-77
2023/03/13 12:03:29;;;;;;;20.45;2.90;;;17.30;99.90;;;;;;4944639;28;38344;-78
2023/03/13 12:05:58;;;;;;;12.48;2.67;;;17.60;99.90;;;;;;4945506;28;36995;-78
2023/03/13 12:08:30;;;;;;;14.80;2.95;;;17.80;99.90;;;;;;4962275;28;37044;-78
2023/03/13 12:11:16;;;;;;;12.35;2.78;;;18.00;99.90;;;;;;4963043;28;37643;-80
2023/03/13 12:13:56;;;;;;;15.05;3.53;;;18.20;99.90;;;;;;4943149;28;47264;-84
2023/03/13 12:16:36;;;;;;;14.43;2.95;;;18.20;99.90;;;;;;4939345;28;37474;-85
2023/03/13 12:19:02;;;;;;;11.93;3.20;;;18.20;99.90;;;;;;4964547;28;37067;-79
2023/03/13 12:21:36;;;;;;;20.77;4.20;;;18.20;99.90;;;;;;4945329;28;37252;-78
2023/03/13 12:24:24;;;;;;;23.27;4.90;;;17.90;99.90;;;;;;4945467;28;37370;-77
2023/03/13 12:26:58;;;;;;;16.70;3.97;;;17.60;99.90;;;;;;4963938;28;37863;-77
2023/03/13 12:29:34;;;;;;;16.27;3.30;;;17.60;99.90;;;;;;4958019;28;36937;-77
2023/03/13 12:32:12;;;;;;;16.73;3.78;;;17.60;99.90;;;;;;4970407;28;40452;-76
2023/03/13 12:34:51;;;;;;;21.00;4.28;;;17.70;99.90;;;;;;4948122;28;47169;-75
2023/03/13 12:37:40;;;;;;;15.85;3.33;;;17.80;99.90;;;;;;4944715;28;38064;-75
2023/03/13 12:40:38;;;;;;;13.98;3.25;;;17.80;99.90;;;;;;4944032;28;36038;-76
2023/03/13 12:43:16;;;;;;;14.77;3.38;;;17.60;99.90;;;;;;4950394;28;47463;-76
2023/03/13 12:46:14;;;;;;;17.20;4.20;;;17.80;99.90;;;;;;4960407;28;38719;-76
2023/03/13 12:49:18;;;;;;;17.52;4.25;;;17.80;99.90;;;;;;4956270;28;47163;-77
2023/03/13 12:52:21;;;;;;;22.90;4.30;;;17.60;99.90;;;;;;4966123;28;47989;-75
2023/03/13 12:54:59;;;;;;;21.58;4.63;;;17.70;99.90;;;;;;4948853;28;48151;-78